Time;durP1;ratioP1;P1;durP2;ratioP2;P2;SDS_P1;SDS_P2;PMS_P1;PMS_P2;Temp;Humidity;BMP_temperature;BMP_pressure;BME280_temperature;BME280_humidity;BME280_pressure;Samples;Min_cycle;Max_cycle;Signal;HPM_P1;HPM_P2
2023/05/11 00:00:15;;;;;;;31.38;27.92;;;15.40;99.90;;;;;;6181951;23;20465;-75
2023/05/11 00:02:42;;;;;;;30.25;26.58;;;15.40;99.90;;;;;;6182307;23;20016;-75
2023/05/11 00:05:08;;;;;;;32.08;27.20;;;15.40;99.90;;;;;;6155666;23;20001;-75
2023/05/11 00:07:33;;;;;;;28.90;25.83;;;15.40;99.90;;;;;;6182295;23;20016;-75
2023/05/11 00:09:59;;;;;;;30.20;25.35;;;15.40;99.90;;;;;;6181970;23;20029;-75
2023/05/11 00:12:24;;;;;;;28.92;24.60;;;15.40;99.90;;;;;;6181865;23;20036;-75
2023/05/11 00:14:50;;;;;;;30.80;24.55;;;15.40;99.90;;;;;;6182475;23;20073;-75
2023/05/11 00:17:17;;;;;;;28.27;24.08;;;15.30;99.90;;;;;;6181867;23;20001;-74
2023/05/11 00:19:43;;;;;;;31.25;24.30;;;15.40;99.90;;;;;;6182507;23;20075;-75
2023/05/11 00:22:08;;;;;;;33.05;22.67;;;15.30;99.90;;;;;;6181967;23;20021;-75
2023/05/11 00:24:34;;;;;;;29.20;22.98;;;15.40;99.90;;;;;;6181435;23;20024;-75
2023/05/11 00:26:59;;;;;;;25.30;20.80;;;15.30;99.90;;;;;;6182418;23;20001;-75
2023/05/11 00:29:25;;;;;;;28.58;21.98;;;15.30;99.90;;;;;;6181724;23;20363;-75
2023/05/11 00:31:50;;;;;;;26.20;23.25;;;15.30;99.90;;;;;;6156031;23;20378;-74
2023/05/11 00:34:16;;;;;;;27.40;22.15;;;15.30;99.90;;;;;;6181594;23;20441;-75
2023/05/11 00:36:43;;;;;;;25.27;20.80;;;15.30;99.90;;;;;;6182440;23;20068;-74
2023/05/11 00:39:10;;;;;;;29.63;22.13;;;15.20;99.90;;;;;;6181114;23;20056;-74
2023/05/11 00:41:36;;;;;;;28.42;20.90;;;15.30;99.90;;;;;;6181967;23;20008;-74
2023/05/11 00:44:02;;;;;;;29.70;24.23;;;15.20;99.90;;;;;;6182277;23;20012;-75
2023/05/11 00:46:27;;;;;;;29.27;21.10;;;15.10;99.90;;;;;;6154984;23;20009;-75
2023/05/11 00:48:53;;;;;;;25.73;22.80;;;15.20;99.90;;;;;;6181408;23;20490;-75
2023/05/11 00:51:20;;;;;;;27.60;22.20;;;15.10;99.90;;;;;;6181560;23;20001;-75
2023/05/11 00:53:46;;;;;;;27.52;22.77;;;15.20;99.90;;;;;;6181493;23;20001;-74
2023/05/11 00:56:12;;;;;;;26.45;22.17;;;15.10;99.90;;;;;;6154910;23;20015;-75
2023/05/11 00:58:38;;;;;;;28.20;23.35;;;15.20;99.90;;;;;;6181964;23;20083;-75
2023/05/11 01:01:03;;;;;;;31.92;25.33;;;15.10;99.90;;;;;;6182002;23;20514;-75
2023/05/11 01:03:30;;;;;;;27.85;23.67;;;15.10;99.90;;;;;;6181334;23;20116;-74
2023/05/11 01:06:08;;;;;;;32.88;25.58;;;15.10;99.90;;;;;;6155556;23;20284;-75
2023/05/11 01:08:40;;;;;;;36.97;28.90;;;15.10;99.90;;;;;;6180943;23;20231;-75
2023/05/11 01:11:28;;;;;;;35.42;29.05;;;15.10;99.90;;;;;;6155282;23;20009;-75
2023/05/11 01:14:10;;;;;;;37.72;30.00;;;15.10;99.90;;;;;;6182020;23;20111;-75
2023/05/11 01:16:39;;;;;;;33.40;29.80;;;15.10;99.90;;;;;;6155240;23;20387;-75
2023/05/11 01:19:11;;;;;;;35.13;30.80;;;15.10;99.90;;;;;;6181598;23;20021;-75
2023/05/11 01:21:38;;;;;;;36.38;32.45;;;15.10;99.90;;;;;;6154671;23;20384;-75
2023/05/11 01:24:50;;;;;;;36.28;31.38;;;15.10;99.90;;;;;;6181688;23;20383;-75
2023/05/11 01:28:20;;;;;;;40.47;32.38;;;15.10;99.90;;;;;;6181150;23;20001;-75
2023/05/11 01:31:00;;;;;;;38.75;31.98;;;15.10;99.90;;;;;;6009428;23;20742;-75
2023/05/11 01:33:31;;;;;;;37.80;31.13;;;15.10;99.90;;;;;;6032415;23;20144;-76
2023/05/11 01:36:03;;;;;;;36.47;28.60;;;15.10;99.90;;;;;;6032927;23;20011;-75
2023/05/11 01:38:34;;;;;;;37.22;30.35;;;15.10;99.90;;;;;;6031966;23;20019;-75
2023/05/11 01:41:05;;;;;;;34.83;28.38;;;15.10;99.90;;;;;;6032793;23;20014;-76
2023/05/11 01:43:34;;;;;;;35.15;29.48;;;15.10;99.90;;;;;;6032269;23;20023;-75
2023/05/11 01:46:02;;;;;;;34.90;28.17;;;15.10;99.90;;;;;;6032919;23;20010;-75
2023/05/11 01:48:32;;;;;;;31.33;26.73;;;15.10;99.90;;;;;;6032344;23;20028;-76
2023/05/11 01:51:01;;;;;;;36.72;27.45;;;15.10;99.90;;;;;;6032357;23;20011;-74
2023/05/11 01:53:30;;;;;;;32.53;25.73;;;15.10;99.90;;;;;;6032204;23;20134;-75
2023/05/11 01:55:57;;;;;;;37.70;28.45;;;15.00;99.90;;;;;;6032734;23;20010;-75
2023/05/11 01:58:24;;;;;;;38.28;28.55;;;15.10;99.90;;;;;;6031998;23;20022;-75
2023/05/11 02:00:51;;;;;;;37.53;28.52;;;15.10;99.90;;;;;;6032814;23;20007;-75
2023/05/11 02:03:19;;;;;;;46.80;29.25;;;15.10;99.90;;;;;;6032069;23;20165;-75
2023/05/11 02:05:47;;;;;;;35.88;25.73;;;15.20;99.90;;;;;;6169673;23;19997;-75
2023/05/11 02:08:13;;;;;;;39.83;27.40;;;15.20;99.90;;;;;;6180630;23;20067;-75
2023/05/11 02:10:40;;;;;;;40.35;28.80;;;15.20;99.90;;;;;;6181006;23;20323;-75
2023/05/11 02:13:08;;;;;;;37.75;25.52;;;15.10;99.90;;;;;;6181340;23;20001;-75
2023/05/11 02:15:40;;;;;;;36.60;26.42;;;15.20;99.90;;;;;;6181225;23;20069;-74
2023/05/11 02:18:08;;;;;;;34.90;25.50;;;15.20;99.90;;;;;;6181156;23;20001;-76
2023/05/11 02:20:34;;;;;;;40.33;27.45;;;15.20;99.90;;;;;;6180504;23;20005;-75
2023/05/11 02:23:00;;;;;;;44.83;26.45;;;15.20;99.90;;;;;;6181132;23;20067;-75
2023/05/11 02:25:27;;;;;;;38.28;25.77;;;15.20;99.90;;;;;;6180466;23;20001;-74
2023/05/11 02:27:53;;;;;;;40.75;24.95;;;15.20;99.90;;;;;;6181163;23;19997;-75
2023/05/11 02:30:18;;;;;;;40.83;25.60;;;15.20;99.90;;;;;;6180512;23;20059;-75
2023/05/11 02:32:50;;;;;;;43.55;25.98;;;15.20;99.90;;;;;;6154616;23;20094;-75
2023/05/11 02:35:25;;;;;;;40.22;25.08;;;15.10;99.90;;;;;;6179716;23;20431;-75
2023/05/11 02:37:55;;;;;;;40.20;26.35;;;15.10;99.90;;;;;;6180973;23;20009;-75
2023/05/11 02:40:27;;;;;;;41.92;25.45;;;15.10;99.90;;;;;;6180381;23;20081;-75
2023/05/11 02:42:59;;;;;;;38.42;24.73;;;15.00;99.90;;;;;;6180712;23;20024;-75
2023/05/11 02:45:30;;;;;;;43.00;25.83;;;15.00;99.90;;;;;;6180517;23;20001;-75
2023/05/11 02:47:57;;;;;;;43.63;25.48;;;15.00;99.90;;;;;;6180928;23;20001;-75
2023/05/11 02:50:24;;;;;;;45.03;26.17;;;15.00;99.90;;;;;;6179799;23;20001;-75
2023/05/11 02:52:54;;;;;;;39.35;25.45;;;15.00;99.90;;;;;;6180779;23;20028;-75
2023/05/11 02:55:21;;;;;;;38.80;25.58;;;15.00;99.90;;;;;;6180259;23;20009;-75
2023/05/11 02:57:47;;;;;;;43.33;24.80;;;15.00;99.90;;;;;;6180839;23;20280;-75
2023/05/11 03:00:13;;;;;;;44.35;25.67;;;14.90;99.90;;;;;;6180387;23;20093;-75
2023/05/11 03:02:38;;;;;;;41.60;24.85;;;14.90;99.90;;;;;;6180597;23;20047;-75
2023/05/11 03:05:04;;;;;;;41.90;25.25;;;14.90;99.90;;;;;;6180236;23;19997;-75
2023/05/11 03:07:31;;;;;;;41.97;24.65;;;15.00;99.90;;;;;;6153691;23;20005;-75
2023/05/11 03:09:57;;;;;;;40.88;25.35;;;14.90;99.90;;;;;;6180880;23;20001;-75
2023/05/11 03:12:23;;;;;;;45.35;24.88;;;14.90;99.90;;;;;;6179797;23;20012;-75
2023/05/11 03:14:49;;;;;;;41.65;24.73;;;14.90;99.90;;;;;;6180934;23;19997;-75
2023/05/11 03:17:15;;;;;;;41.63;25.35;;;14.90;99.90;;;;;;6178920;23;20001;-76
2023/05/11 03:19:41;;;;;;;48.97;27.88;;;14.90;99.90;;;;;;6152749;23;20001;-76
2023/05/11 03:22:08;;;;;;;50.50;27.67;;;14.90;99.90;;;;;;6152460;23;20053;-76
2023/05/11 03:24:34;;;;;;;48.47;27.88;;;14.90;99.90;;;;;;6179087;23;19997;-76
2023/05/11 03:27:02;;;;;;;42.67;26.42;;;15.00;99.90;;;;;;6152262;23;20382;-75
2023/05/11 03:29:28;;;;;;;45.28;27.33;;;14.90;99.90;;;;;;6179912;23;20005;-77
2023/05/11 03:31:54;;;;;;;46.97;29.10;;;14.90;99.90;;;;;;6180499;23;20423;-76
2023/05/11 03:34:20;;;;;;;45.83;29.00;;;14.90;99.90;;;;;;6152807;23;20012;-76
2023/05/11 03:36:49;;;;;;;47.47;28.95;;;14.90;99.90;;;;;;6180507;23;20005;-74
2023/05/11 03:39:16;;;;;;;53.22;29.35;;;14.80;99.90;;;;;;6179990;23;20001;-74
2023/05/11 03:41:44;;;;;;;44.65;27.55;;;14.80;99.90;;;;;;6180364;23;19997;-73
2023/05/11 03:44:12;;;;;;;50.97;28.52;;;14.80;99.90;;;;;;6180254;23;20101;-74
2023/05/11 03:46:39;;;;;;;48.10;28.60;;;14.80;99.90;;;;;;6180172;23;20354;-74
2023/05/11 03:49:06;;;;;;;47.58;27.30;;;14.70;99.90;;;;;;6180470;23;20010;-74
2023/05/11 03:51:33;;;;;;;46.35;25.90;;;14.70;99.90;;;;;;6153699;23;20011;-73
2023/05/11 03:53:59;;;;;;;44.35;27.67;;;14.70;99.90;;;;;;6180506;23;20001;-74
2023/05/11 03:56:25;;;;;;;48.97;27.48;;;14.60;99.90;;;;;;6153318;23;20009;-73
2023/05/11 03:58:51;;;;;;;44.30;25.45;;;14.60;99.90;;;;;;6180469;23;20067;-73
2023/05/11 04:01:17;;;;;;;44.75;25.75;;;14.60;99.90;;;;;;6179295;23;20008;-74
2023/05/11 04:03:51;;;;;;;49.25;29.50;;;14.60;99.90;;;;;;6180400;23;20080;-74
2023/05/11 04:06:17;;;;;;;50.85;28.38;;;14.60;99.90;;;;;;6179756;23;20016;-74
2023/05/11 04:08:43;;;;;;;52.90;28.65;;;14.60;99.90;;;;;;6154074;23;20028;-74
2023/05/11 04:11:09;;;;;;;48.70;28.92;;;14.60;99.90;;;;;;6180065;23;20415;-73
2023/05/11 04:13:35;;;;;;;54.80;29.85;;;14.60;99.90;;;;;;6180155;23;20135;-74
2023/05/11 04:16:00;;;;;;;50.85;29.38;;;14.60;99.90;;;;;;6179999;23;20380;-73
2023/05/11 04:18:26;;;;;;;50.67;29.40;;;14.70;99.90;;;;;;6179752;23;20453;-74
2023/05/11 04:20:52;;;;;;;52.90;29.40;;;14.70;99.90;;;;;;6180624;23;20005;-75
2023/05/11 04:23:17;;;;;;;53.70;30.58;;;14.70;99.90;;;;;;6180029;23;20005;-74
2023/05/11 04:25:43;;;;;;;48.75;29.63;;;14.70;99.90;;;;;;6182281;23;20123;-74
2023/05/11 04:28:08;;;;;;;50.60;28.08;;;14.70;99.90;;;;;;6181822;23;20124;-74
2023/05/11 04:30:34;;;;;;;59.60;30.92;;;14.60;99.90;;;;;;6181544;23;20047;-74
2023/05/11 04:32:59;;;;;;;60.17;32.03;;;14.70;99.90;;;;;;6182068;23;20001;-74
2023/05/11 04:35:25;;;;;;;54.55;30.88;;;14.70;99.90;;;;;;6181643;23;20052;-74
2023/05/11 04:37:50;;;;;;;54.83;31.02;;;14.80;99.90;;;;;;6155553;23;20052;-73
2023/05/11 04:40:16;;;;;;;47.63;28.70;;;14.80;99.90;;;;;;6180101;23;20055;-74
2023/05/11 04:42:42;;;;;;;55.55;29.15;;;14.80;99.90;;;;;;6181315;23;20216;-74
2023/05/11 04:45:07;;;;;;;54.85;29.35;;;14.80;99.90;;;;;;6154701;23;20028;-74
2023/05/11 04:47:33;;;;;;;56.75;30.70;;;14.80;99.90;;;;;;6181434;23;20327;-74
2023/05/11 04:49:59;;;;;;;56.60;30.77;;;14.80;99.90;;;;;;6181679;23;20103;-74
2023/05/11 04:52:24;;;;;;;53.20;29.73;;;14.80;99.90;;;;;;6180889;23;20108;-74
2023/05/11 04:54:50;;;;;;;60.13;31.92;;;14.80;99.90;;;;;;6155323;23;20108;-74
2023/05/11 04:57:15;;;;;;;53.95;30.50;;;14.80;99.90;;;;;;6179433;23;20005;-74
2023/05/11 04:59:41;;;;;;;53.88;28.30;;;14.80;99.90;;;;;;6181331;23;20040;-73
2023/05/11 05:02:07;;;;;;;49.47;29.65;;;14.70;99.90;;;;;;6179873;23;20020;-74
2023/05/11 05:04:32;;;;;;;49.15;27.45;;;14.80;99.90;;;;;;6181252;23;20011;-74
2023/05/11 05:06:58;;;;;;;54.75;26.88;;;14.70;99.90;;;;;;6181704;23;20453;-74
2023/05/11 05:09:23;;;;;;;60.63;30.73;;;14.70;99.90;;;;;;6180579;23;20036;-74
2023/05/11 05:11:49;;;;;;;60.47;31.27;;;14.70;99.90;;;;;;6154985;23;19993;-74
2023/05/11 05:14:14;;;;;;;52.47;28.65;;;14.60;99.90;;;;;;6153607;23;20009;-74
2023/05/11 05:16:40;;;;;;;58.20;29.75;;;14.70;99.90;;;;;;6180915;23;20033;-74
2023/05/11 05:19:05;;;;;;;57.97;31.52;;;14.70;99.90;;;;;;6154812;23;20016;-74
2023/05/11 05:21:31;;;;;;;58.67;30.70;;;14.70;99.90;;;;;;6180468;23;20049;-73
2023/05/11 05:23:56;;;;;;;53.90;30.52;;;14.70;99.90;;;;;;6181502;23;20013;-74
2023/05/11 05:26:22;;;;;;;56.42;31.75;;;14.70;99.90;;;;;;6181011;23;20089;-74
2023/05/11 05:28:48;;;;;;;59.67;33.22;;;14.70;99.90;;;;;;6154046;23;20387;-74
2023/05/11 05:31:13;;;;;;;62.67;32.80;;;14.80;99.90;;;;;;6180638;23;20043;-73
2023/05/11 05:33:39;;;;;;;61.55;34.08;;;14.80;99.90;;;;;;6181638;23;20028;-79
2023/05/11 05:36:05;;;;;;;61.13;32.25;;;14.80;99.90;;;;;;6154618;23;20005;-78
2023/05/11 05:38:30;;;;;;;54.65;30.33;;;14.80;99.90;;;;;;6154540;23;20015;-78
2023/05/11 05:40:56;;;;;;;55.42;33.25;;;14.80;99.90;;;;;;6154956;23;20036;-78
2023/05/11 05:43:21;;;;;;;58.65;33.65;;;14.90;99.90;;;;;;6179783;23;20481;-77
2023/05/11 05:45:48;;;;;;;58.75;33.25;;;14.90;99.90;;;;;;6181681;23;20021;-77
2023/05/11 05:48:13;;;;;;;63.63;31.88;;;14.90;99.90;;;;;;6180279;23;20008;-77
2023/05/11 05:50:39;;;;;;;56.80;32.83;;;14.80;99.90;;;;;;6180733;23;20001;-78
2023/05/11 05:53:06;;;;;;;55.13;30.88;;;15.00;99.90;;;;;;6180409;23;20079;-77
2023/05/11 05:55:31;;;;;;;59.97;34.28;;;15.00;99.90;;;;;;6154645;23;20016;-78
2023/05/11 05:57:57;;;;;;;53.65;33.20;;;15.10;99.90;;;;;;6180790;23;20001;-77
2023/05/11 06:00:22;;;;;;;55.10;34.63;;;15.20;99.90;;;;;;6180588;23;20076;-77
2023/05/11 06:02:48;;;;;;;50.22;33.00;;;15.20;99.90;;;;;;6181159;23;20016;-77
2023/05/11 06:05:13;;;;;;;55.88;35.03;;;15.30;99.90;;;;;;6180515;23;20427;-77
2023/05/11 06:07:39;;;;;;;50.55;33.00;;;15.40;99.90;;;;;;6181111;23;20024;-78
2023/05/11 06:10:05;;;;;;;52.78;33.45;;;15.50;99.90;;;;;;6154795;23;20398;-76
2023/05/11 06:12:30;;;;;;;52.20;32.33;;;15.50;99.90;;;;;;6153305;23;20009;-77
2023/05/11 06:14:56;;;;;;;50.40;32.92;;;15.60;99.90;;;;;;6181194;23;20013;-77
2023/05/11 06:17:22;;;;;;;50.42;33.50;;;15.70;99.90;;;;;;6180399;23;20001;-77
2023/05/11 06:19:48;;;;;;;53.15;32.60;;;15.80;99.90;;;;;;6154687;23;20005;-78
2023/05/11 06:22:14;;;;;;;48.05;31.05;;;16.00;99.90;;;;;;6180333;23;20395;-77
2023/05/11 06:24:40;;;;;;;41.28;31.50;;;16.10;99.90;;;;;;6154424;23;20004;-77
2023/05/11 06:27:05;;;;;;;39.83;27.55;;;16.10;99.90;;;;;;6154020;23;19997;-78
2023/05/11 06:29:31;;;;;;;35.35;26.55;;;16.20;99.90;;;;;;6180449;23;20035;-78
2023/05/11 06:31:57;;;;;;;40.83;27.67;;;16.40;99.90;;;;;;6181155;23;20453;-78
2023/05/11 06:34:23;;;;;;;36.70;27.42;;;16.50;99.90;;;;;;6180185;23;20000;-77
2023/05/11 06:36:48;;;;;;;37.55;28.63;;;16.60;99.90;;;;;;6178636;23;20005;-77
2023/05/11 06:39:14;;;;;;;30.48;22.98;;;16.80;99.90;;;;;;6180253;23;20075;-77
2023/05/11 06:41:39;;;;;;;30.48;24.17;;;16.90;99.90;;;;;;6180310;23;20378;-78
2023/05/11 06:44:05;;;;;;;35.95;28.23;;;17.00;99.90;;;;;;6154195;23;20043;-78
2023/05/11 06:46:31;;;;;;;35.63;26.65;;;17.00;99.90;;;;;;6180148;23;20378;-78
2023/05/11 06:48:56;;;;;;;36.10;25.80;;;17.10;99.90;;;;;;6179064;23;20028;-78
2023/05/11 06:51:22;;;;;;;35.40;28.10;;;17.10;99.90;;;;;;6151479;23;20080;-78
2023/05/11 06:53:49;;;;;;;36.80;29.48;;;17.10;99.90;;;;;;6178813;23;20016;-77
2023/05/11 06:56:14;;;;;;;35.90;26.60;;;17.00;99.90;;;;;;6178729;23;20001;-78
2023/05/11 06:58:40;;;;;;;32.83;27.00;;;16.90;99.90;;;;;;6154123;23;20007;-78
2023/05/11 07:01:06;;;;;;;33.22;25.67;;;16.80;99.90;;;;;;6150963;23;20036;-78
2023/05/11 07:03:35;;;;;;;35.03;27.05;;;16.70;99.90;;;;;;6178518;23;20005;-77
2023/05/11 07:06:01;;;;;;;33.25;27.10;;;16.60;99.90;;;;;;6152976;23;20028;-78
2023/05/11 07:08:26;;;;;;;32.88;27.27;;;16.50;99.90;;;;;;6152620;23;20507;-77
2023/05/11 07:10:52;;;;;;;27.98;24.70;;;16.40;99.90;;;;;;6178272;23;20072;-78
2023/05/11 07:13:18;;;;;;;32.45;27.48;;;16.40;99.90;;;;;;6177151;23;20175;-78
2023/05/11 07:15:43;;;;;;;32.35;27.48;;;16.40;99.90;;;;;;6179707;23;20012;-78
2023/05/11 07:18:09;;;;;;;36.10;29.90;;;16.40;99.90;;;;;;6180004;23;20005;-78
2023/05/11 07:20:39;;;;;;;36.08;30.30;;;16.40;99.90;;;;;;6178673;23;20001;-78
2023/05/11 07:23:05;;;;;;;35.97;31.42;;;16.50;99.90;;;;;;6179576;23;20077;-78
2023/05/11 07:25:30;;;;;;;39.60;31.55;;;16.60;99.90;;;;;;6152347;23;20033;-78
2023/05/11 07:27:56;;;;;;;38.22;32.10;;;16.70;99.90;;;;;;6180048;23;19998;-78
2023/05/11 07:30:21;;;;;;;40.85;33.10;;;16.80;99.90;;;;;;6152959;23;20011;-79
2023/05/11 07:32:47;;;;;;;43.05;34.10;;;16.90;99.90;;;;;;6178886;23;20084;-77
2023/05/11 07:35:14;;;;;;;43.58;37.33;;;16.90;99.90;;;;;;6152763;23;20005;-78
2023/05/11 07:37:40;;;;;;;42.80;36.42;;;16.90;99.90;;;;;;6153712;23;20012;-78
2023/05/11 07:40:06;;;;;;;40.15;35.47;;;16.90;99.90;;;;;;6178065;23;20343;-78
2023/05/11 07:42:32;;;;;;;39.92;34.67;;;17.00;99.90;;;;;;6151120;23;20017;-78
2023/05/11 07:44:57;;;;;;;44.13;35.85;;;17.00;99.90;;;;;;6153369;23;20008;-77
2023/05/11 07:47:24;;;;;;;40.95;35.63;;;17.10;99.90;;;;;;6179003;23;20001;-77
2023/05/11 07:49:49;;;;;;;39.67;32.90;;;17.10;99.90;;;;;;6179744;23;19998;-77
2023/05/11 07:52:15;;;;;;;38.42;33.15;;;17.20;99.90;;;;;;6178368;23;19997;-78
2023/05/11 07:54:41;;;;;;;39.63;33.63;;;17.20;99.90;;;;;;6178304;23;20005;-77
2023/05/11 07:57:07;;;;;;;40.67;33.05;;;17.30;99.90;;;;;;6179407;23;20045;-78
2023/05/11 07:59:33;;;;;;;37.47;31.25;;;17.40;99.90;;;;;;6179352;23;20012;-78
2023/05/11 08:01:58;;;;;;;36.20;32.30;;;17.50;99.90;;;;;;6182033;23;20009;-78
2023/05/11 08:04:26;;;;;;;36.42;31.08;;;17.60;99.90;;;;;;6178779;23;20001;-78
2023/05/11 08:06:52;;;;;;;34.00;28.73;;;17.60;99.90;;;;;;6180070;23;20001;-78
2023/05/11 08:09:17;;;;;;;33.97;28.35;;;17.60;99.90;;;;;;6179301;23;20427;-77
2023/05/11 08:11:43;;;;;;;27.73;24.92;;;17.70;99.90;;;;;;6155329;23;19997;-77
2023/05/11 08:14:09;;;;;;;27.65;24.73;;;17.80;99.90;;;;;;6177822;23;20013;-78
2023/05/11 08:16:36;;;;;;;28.80;25.98;;;17.80;99.90;;;;;;6180746;23;20005;-78
2023/05/11 08:19:01;;;;;;;26.17;23.52;;;17.80;99.90;;;;;;6155342;23;20005;-77
2023/05/11 08:21:27;;;;;;;27.55;24.65;;;17.90;99.90;;;;;;6180170;23;20035;-77
2023/05/11 08:23:52;;;;;;;28.83;25.73;;;17.90;99.90;;;;;;6178601;23;20034;-77
2023/05/11 08:26:18;;;;;;;27.70;24.70;;;17.90;99.90;;;;;;6180006;23;20417;-79
2023/05/11 08:28:44;;;;;;;31.85;26.15;;;17.90;99.90;;;;;;6156772;23;20416;-74
2023/05/11 08:31:10;;;;;;;28.42;25.35;;;17.90;99.90;;;;;;6155253;23;20005;-74
2023/05/11 08:33:36;;;;;;;34.22;29.23;;;17.90;99.90;;;;;;6154554;23;20104;-75
2023/05/11 08:36:02;;;;;;;38.20;33.67;;;17.90;99.90;;;;;;6178715;23;20363;-74
2023/05/11 08:38:28;;;;;;;35.25;31.35;;;17.80;99.90;;;;;;6180427;23;20028;-75
2023/05/11 08:40:53;;;;;;;38.00;33.92;;;17.80;99.90;;;;;;6181253;23;20004;-73
2023/05/11 08:43:20;;;;;;;36.38;32.75;;;17.80;99.90;;;;;;6178289;23;20017;-72
2023/05/11 08:45:49;;;;;;;37.05;33.15;;;17.80;99.90;;;;;;6181243;23;20079;-73
2023/05/11 08:48:19;;;;;;;34.72;31.02;;;17.90;99.90;;;;;;6152995;23;20084;-73
2023/05/11 08:50:46;;;;;;;33.28;29.58;;;17.90;99.90;;;;;;6181459;23;20322;-73
2023/05/11 08:53:12;;;;;;;34.15;30.58;;;17.90;99.90;;;;;;6153900;23;20001;-73
2023/05/11 08:55:40;;;;;;;32.40;28.70;;;18.00;99.90;;;;;;6181103;23;20023;-73
2023/05/11 08:58:06;;;;;;;36.75;32.92;;;18.00;99.90;;;;;;6179176;23;20643;-73
2023/05/11 09:00:33;;;;;;;40.65;36.28;;;18.10;99.90;;;;;;6180823;23;20004;-73
2023/05/11 09:02:59;;;;;;;40.15;35.92;;;18.10;99.90;;;;;;6155023;23;20099;-73
2023/05/11 09:05:26;;;;;;;37.88;33.83;;;18.10;99.90;;;;;;6154361;23;20001;-73
2023/05/11 09:07:55;;;;;;;37.17;33.42;;;18.10;99.90;;;;;;6154143;23;20372;-74
2023/05/11 09:10:21;;;;;;;40.03;36.10;;;18.10;99.90;;;;;;6152681;23;20387;-73
2023/05/11 09:12:47;;;;;;;37.33;33.35;;;18.20;99.90;;;;;;6181531;23;20005;-73
2023/05/11 09:15:12;;;;;;;36.13;32.53;;;18.40;99.90;;;;;;6154216;23;20055;-73
2023/05/11 09:17:38;;;;;;;35.50;31.88;;;18.50;99.90;;;;;;6155134;23;20056;-73
2023/05/11 09:20:06;;;;;;;29.23;26.23;;;18.70;99.90;;;;;;6179687;23;20010;-73
2023/05/11 09:22:44;;;;;;;33.88;30.30;;;18.90;99.90;;;;;;6180669;23;20020;-73
2023/05/11 09:25:12;;;;;;;29.75;26.88;;;19.10;99.90;;;;;;6180819;23;20064;-74
2023/05/11 09:27:45;;;;;;;36.60;32.85;;;19.30;99.90;;;;;;6154456;23;20071;-74
2023/05/11 09:30:18;;;;;;;37.47;33.85;;;19.70;99.90;;;;;;6179237;23;20001;-74
2023/05/11 09:32:58;;;;;;;36.47;33.03;;;19.90;99.90;;;;;;6181257;23;20009;-73
2023/05/11 09:35:34;;;;;;;35.60;32.20;;;20.10;99.90;;;;;;6180152;23;20012;-77
2023/05/11 09:38:03;;;;;;;33.70;30.50;;;20.00;99.90;;;;;;6181049;23;20013;-72
2023/05/11 09:40:30;;;;;;;38.30;34.53;;;19.90;99.90;;;;;;6178530;23;20032;-76
2023/05/11 09:42:56;;;;;;;36.00;32.40;;;19.70;99.90;;;;;;6179733;23;20009;-76
2023/05/11 09:45:39;;;;;;;33.83;29.42;;;19.60;99.90;;;;;;6178615;23;20015;-76
2023/05/11 09:48:20;;;;;;;26.33;23.63;;;19.50;99.90;;;;;;6153970;23;20001;-76
2023/05/11 09:50:47;;;;;;;32.38;29.02;;;19.30;99.90;;;;;;6177677;23;20212;-75
2023/05/11 09:53:13;;;;;;;32.20;28.83;;;19.10;99.90;;;;;;6152792;23;20144;-76
2023/05/11 09:55:50;;;;;;;31.15;27.95;;;19.00;99.90;;;;;;6153911;23;20016;-76
2023/05/11 09:58:16;;;;;;;28.55;25.65;;;18.80;99.90;;;;;;6153471;23;20075;-76
2023/05/11 10:00:51;;;;;;;31.90;28.75;;;18.60;99.90;;;;;;6153413;23;20009;-76
2023/05/11 10:03:17;;;;;;;29.50;26.40;;;18.50;99.90;;;;;;6178289;23;20005;-76
2023/05/11 10:05:56;;;;;;;29.80;26.73;;;18.40;99.90;;;;;;6178977;23;20005;-75
2023/05/11 10:08:27;;;;;;;30.77;27.58;;;18.30;99.90;;;;;;6179767;23;20092;-76
2023/05/11 10:10:54;;;;;;;32.95;29.27;;;18.10;99.90;;;;;;6154777;23;20005;-77
2023/05/11 10:13:20;;;;;;;32.85;29.38;;;18.00;99.90;;;;;;6178578;23;20027;-77
2023/05/11 10:15:50;;;;;;;32.38;29.10;;;17.90;99.90;;;;;;6181003;23;20430;-77
2023/05/11 10:18:16;;;;;;;37.22;32.40;;;17.90;99.90;;;;;;6179481;23;19996;-75
2023/05/11 10:20:43;;;;;;;50.72;37.60;;;17.70;99.90;;;;;;6180771;23;19993;-75
2023/05/11 10:23:11;;;;;;;42.00;34.92;;;17.60;99.90;;;;;;6178461;23;20095;-74
2023/05/11 10:25:37;;;;;;;33.42;29.98;;;17.30;99.90;;;;;;6180472;23;19997;-74
2023/05/11 10:28:03;;;;;;;36.35;31.85;;;16.90;99.90;;;;;;6153838;23;20087;-74
2023/05/11 10:30:30;;;;;;;35.13;31.35;;;16.70;99.90;;;;;;6153714;23;20443;-73
2023/05/11 10:32:56;;;;;;;38.58;33.55;;;16.60;99.90;;;;;;6180182;23;20005;-74
2023/05/11 10:35:22;;;;;;;40.22;34.42;;;16.60;99.90;;;;;;6178380;23;20072;-74
2023/05/11 10:37:48;;;;;;;39.47;34.95;;;16.50;99.90;;;;;;6154036;23;20016;-74
2023/05/11 10:40:14;;;;;;;44.78;38.25;;;16.50;99.90;;;;;;6179871;23;20036;-74
2023/05/11 10:43:07;;;;;;;47.03;38.78;;;16.50;99.90;;;;;;6180030;23;20013;-74
2023/05/11 10:45:55;;;;;;;49.25;39.97;;;16.50;99.90;;;;;;6151742;23;20016;-74
2023/05/11 10:49:03;;;;;;;49.17;42.35;;;16.50;99.90;;;;;;6152533;23;20040;-73
2023/05/11 10:51:47;;;;;;;47.50;41.20;;;16.60;99.90;;;;;;6179280;23;20083;-74
2023/05/11 10:54:27;;;;;;;48.22;42.30;;;16.70;99.90;;;;;;6178939;23;20397;-73
2023/05/11 10:57:22;;;;;;;51.83;43.17;;;16.70;99.90;;;;;;6152277;23;20029;-73
2023/05/11 10:59:50;;;;;;;;;;;16.70;99.90;;;;;;6180678;23;20071;-73
2023/05/11 11:02:17;;;;;;;50.25;42.25;;;16.70;99.90;;;;;;6151449;23;19900;-74
2023/05/11 11:04:50;;;;;;;52.20;40.63;;;16.70;99.90;;;;;;6153746;23;20005;-74
2023/05/11 11:07:18;;;;;;;45.05;39.05;;;16.80;99.90;;;;;;6150909;23;20011;-74
2023/05/11 11:09:58;;;;;;;53.05;40.35;;;16.80;99.90;;;;;;6179983;23;20001;-74
2023/05/11 11:12:28;;;;;;;43.83;37.42;;;16.90;99.90;;;;;;6179784;23;20052;-74
2023/05/11 11:14:59;;;;;;;53.47;39.30;;;16.80;99.90;;;;;;6153914;23;20009;-74
2023/05/11 11:17:30;;;;;;;49.03;39.53;;;16.90;99.90;;;;;;6150746;23;20012;-74
2023/05/11 11:20:00;;;;;;;47.38;37.03;;;16.90;99.90;;;;;;6153897;23;20009;-73
2023/05/11 11:22:37;;;;;;;50.42;39.28;;;16.90;99.90;;;;;;6151709;23;20077;-73
2023/05/11 11:25:07;;;;;;;45.75;38.20;;;16.90;99.90;;;;;;6153792;23;20480;-74
2023/05/11 11:27:39;;;;;;;45.08;37.45;;;16.90;99.90;;;;;;6178784;23;20072;-73
2023/05/11 11:30:14;;;;;;;47.67;38.13;;;16.90;99.90;;;;;;6153295;23;19998;-73
2023/05/11 11:32:40;;;;;;;36.30;31.23;;;16.80;99.90;;;;;;6180295;23;20017;-73
2023/05/11 11:35:38;;;;;;;32.90;27.23;;;16.80;99.90;;;;;;6183499;23;20083;-73
2023/05/11 11:38:04;;;;;;;25.77;23.05;;;16.80;99.90;;;;;;6183109;23;20004;-73
2023/05/11 11:40:37;;;;;;;23.75;21.33;;;16.70;99.90;;;;;;6181953;23;20760;-73
2023/05/11 11:43:13;;;;;;;25.52;22.02;;;16.70;99.90;;;;;;6156198;23;20020;-72
2023/05/11 11:45:55;;;;;;;23.60;19.50;;;16.70;99.90;;;;;;6155923;23;20053;-72
2023/05/11 11:48:35;;;;;;;18.75;16.77;;;16.80;99.90;;;;;;6183534;23;20056;-73
2023/05/11 11:51:05;;;;;;;16.23;14.63;;;16.70;99.90;;;;;;6156872;23;20138;-73
2023/05/11 11:53:36;;;;;;;17.13;15.32;;;16.70;99.90;;;;;;6156270;23;20089;-73
2023/05/11 11:56:28;;;;;;;18.10;16.25;;;16.80;99.90;;;;;;6156556;23;20005;-73
2023/05/11 11:59:04;;;;;;;21.45;17.70;;;16.80;99.90;;;;;;6156722;23;20374;-73
2023/05/11 12:01:34;;;;;;;18.90;16.95;;;16.70;99.90;;;;;;6181468;23;20008;-73
2023/05/11 12:04:03;;;;;;;19.80;17.80;;;16.70;99.90;;;;;;6156215;23;20024;-73
2023/05/11 12:06:36;;;;;;;19.58;17.58;;;16.60;99.90;;;;;;6157048;23;20004;-72
2023/05/11 12:09:03;;;;;;;15.70;14.13;;;16.60;99.90;;;;;;6183424;23;20048;-73
2023/05/11 12:11:29;;;;;;;16.50;14.75;;;16.50;99.90;;;;;;6155024;23;20040;-73
2023/05/11 12:13:56;;;;;;;16.13;13.52;;;16.40;99.90;;;;;;6156591;23;20303;-73
2023/05/11 12:16:22;;;;;;;13.93;12.63;;;16.40;99.90;;;;;;6182006;23;20446;-73
2023/05/11 12:18:56;;;;;;;14.75;13.23;;;16.40;99.90;;;;;;6155750;23;20009;-73
2023/05/11 12:21:24;;;;;;;15.23;13.45;;;16.50;99.90;;;;;;6180472;23;20025;-73
2023/05/11 12:24:03;;;;;;;15.15;13.55;;;16.50;99.90;;;;;;6156685;23;20063;-76
2023/05/11 12:26:30;;;;;;;14.73;12.75;;;16.50;99.90;;;;;;6182312;23;20797;-76
2023/05/11 12:29:13;;;;;;;14.27;12.88;;;16.60;99.90;;;;;;6182489;23;20423;-75
2023/05/11 12:31:41;;;;;;;16.08;14.50;;;16.60;99.90;;;;;;6155816;23;20285;-75
2023/05/11 12:34:15;;;;;;;15.48;13.93;;;16.60;99.90;;;;;;6155480;23;20135;-74